createdAt,value
2023-03-14T00:00:49.348Z,0.00
2023-03-14T00:01:49.352Z,0.00
2023-03-14T00:02:49.368Z,0.00
2023-03-14T00:03:49.369Z,0.00
2023-03-14T00:04:49.376Z,0.00
2023-03-14T00:05:49.378Z,0.00
2023-03-14T00:06:49.383Z,0.00
2023-03-14T00:07:49.385Z,0.00
2023-03-14T00:08:49.414Z,0.00
2023-03-14T00:09:49.448Z,0.00
2023-03-14T00:10:49.426Z,0.00
2023-03-14T00:11:49.432Z,0.00
2023-03-14T00:12:49.438Z,0.00
2023-03-14T00:13:49.434Z,0.00
2023-03-14T00:14:49.446Z,0.00
2023-03-14T00:15:49.519Z,0.00
2023-03-14T00:16:49.432Z,0.00
2023-03-14T00:17:49.464Z,0.00
2023-03-14T00:18:49.483Z,0.00
2023-03-14T00:19:49.454Z,0.00
2023-03-14T00:20:49.474Z,0.00
2023-03-14T00:21:49.461Z,0.00
2023-03-14T00:22:49.488Z,0.00
2023-03-14T00:23:49.470Z,0.00
2023-03-14T00:24:49.495Z,0.00
2023-03-14T00:25:49.532Z,0.00
2023-03-14T00:26:49.512Z,0.00
2023-03-14T00:27:49.517Z,0.00
2023-03-14T00:28:49.517Z,0.00
2023-03-14T00:29:49.503Z,0.00
2023-03-14T00:30:49.529Z,0.00
2023-03-14T00:31:49.518Z,0.00
2023-03-14T00:32:49.591Z,0.00
2023-03-14T00:33:49.547Z,0.00
2023-03-14T00:34:49.549Z,0.00
2023-03-14T00:35:49.584Z,0.00
2023-03-14T00:36:49.560Z,0.00
2023-03-14T00:37:49.564Z,0.00
2023-03-14T00:38:49.578Z,0.00
2023-03-14T00:39:49.554Z,0.00
2023-03-14T00:40:49.560Z,0.00
2023-03-14T00:41:49.583Z,0.00
2023-03-14T00:42:49.572Z,0.00
2023-03-14T00:43:49.574Z,0.00
2023-03-14T00:44:49.581Z,0.00
2023-03-14T00:45:49.604Z,0.00
2023-03-14T00:46:49.746Z,0.00
2023-03-14T00:47:49.620Z,0.00
2023-03-14T00:48:49.630Z,0.00
2023-03-14T00:49:49.628Z,0.00
2023-03-14T00:50:49.612Z,0.00
2023-03-14T00:51:49.642Z,0.00
2023-03-14T00:52:49.630Z,0.00
2023-03-14T00:53:49.628Z,0.00
2023-03-14T00:54:49.656Z,0.00
2023-03-14T00:55:49.646Z,0.00
2023-03-14T00:56:49.662Z,0.00
2023-03-14T00:57:49.695Z,0.00
2023-03-14T00:58:49.676Z,0.00
2023-03-14T00:59:49.681Z,0.00
2023-03-14T01:00:49.684Z,0.00
2023-03-14T01:01:49.823Z,0.00
2023-03-14T01:02:49.705Z,0.00
2023-03-14T01:03:49.682Z,0.00
2023-03-14T01:04:49.706Z,0.00
2023-03-14T01:05:49.711Z,0.00
2023-03-14T01:06:49.710Z,0.00
2023-03-14T01:07:49.725Z,0.00
2023-03-14T01:08:49.725Z,0.00
2023-03-14T01:09:49.713Z,0.00
2023-03-14T01:10:49.741Z,0.00
2023-03-14T01:11:49.745Z,0.00
2023-03-14T01:12:49.752Z,0.00
2023-03-14T01:13:49.758Z,0.00
2023-03-14T01:14:49.778Z,0.00
2023-03-14T01:15:49.788Z,0.00
2023-03-14T01:16:49.773Z,0.00
2023-03-14T01:17:49.788Z,0.00
2023-03-14T01:18:49.763Z,0.00
2023-03-14T01:19:49.830Z,0.00
2023-03-14T01:20:49.773Z,0.00
2023-03-14T01:21:49.778Z,0.00
2023-03-14T01:22:49.807Z,0.00
2023-03-14T01:23:49.794Z,0.00
2023-03-14T01:24:49.812Z,0.00
2023-03-14T01:25:49.808Z,0.00
2023-03-14T01:26:49.825Z,0.00
2023-03-14T01:27:49.829Z,0.00
2023-03-14T01:28:49.831Z,0.00
2023-03-14T01:29:49.844Z,0.00
2023-03-14T01:30:49.857Z,0.00
2023-03-14T01:31:49.892Z,0.00
2023-03-14T01:32:49.863Z,0.00
2023-03-14T01:33:49.840Z,0.00
2023-03-14T01:34:49.845Z,0.00
2023-03-14T01:35:49.918Z,0.00
2023-03-14T01:36:49.877Z,0.00
2023-03-14T01:37:49.863Z,0.00
2023-03-14T01:38:49.865Z,0.00
2023-03-14T01:39:49.888Z,0.00
2023-03-14T01:40:49.875Z,0.00
2023-03-14T01:41:49.884Z,0.00
2023-03-14T01:42:49.886Z,0.00
2023-03-14T01:43:49.909Z,0.00
2023-03-14T01:44:49.916Z,0.00
2023-03-14T01:45:50.055Z,0.00
2023-03-14T01:46:49.913Z,0.00
2023-03-14T01:47:49.910Z,0.00
2023-03-14T01:48:49.934Z,0.00
2023-03-14T01:49:49.942Z,0.00
2023-03-14T01:50:49.926Z,0.00
2023-03-14T01:51:49.936Z,0.00
2023-03-14T01:52:49.942Z,0.00
2023-03-14T01:53:49.946Z,0.00
2023-03-14T01:54:49.967Z,0.00
2023-03-14T01:55:49.952Z,0.00
2023-03-14T01:56:49.962Z,0.00
2023-03-14T01:57:49.986Z,0.00
2023-03-14T01:58:49.985Z,0.00
2023-03-14T01:59:49.973Z,0.00
2023-03-14T02:00:50.019Z,0.00
2023-03-14T02:01:50.023Z,0.00
2023-03-14T02:02:49.986Z,0.00
2023-03-14T02:03:50.130Z,0.00
2023-03-14T02:04:50.027Z,0.00
2023-03-14T02:05:50.027Z,0.00
2023-03-14T02:06:50.009Z,0.00
2023-03-14T02:07:50.035Z,0.00
2023-03-14T02:08:50.037Z,0.00
2023-03-14T02:09:50.029Z,0.00
2023-03-14T02:10:50.054Z,0.00
2023-03-14T02:11:50.030Z,0.00
2023-03-14T02:12:50.055Z,0.00
2023-03-14T02:13:50.055Z,0.00
2023-03-14T02:14:50.044Z,0.00
2023-03-14T02:15:50.064Z,0.00
2023-03-14T02:16:50.052Z,0.00
2023-03-14T02:17:50.171Z,0.00
2023-03-14T02:18:50.080Z,0.00
2023-03-14T02:19:50.062Z,0.00
2023-03-14T02:20:50.075Z,0.00
2023-03-14T02:21:50.100Z,0.00
2023-03-14T02:22:50.078Z,0.00
2023-03-14T02:23:50.104Z,0.00
2023-03-14T02:24:50.086Z,0.00
2023-03-14T02:25:50.128Z,0.00
2023-03-14T02:26:50.098Z,0.00
2023-03-14T02:27:50.103Z,0.00
2023-03-14T02:28:50.125Z,0.00
2023-03-14T02:29:50.111Z,0.00
2023-03-14T02:30:50.135Z,0.00
2023-03-14T02:31:50.140Z,0.00
2023-03-14T02:32:50.177Z,0.00
2023-03-14T02:33:50.174Z,0.00
2023-03-14T02:34:50.152Z,0.00
2023-03-14T02:35:50.180Z,0.00
2023-03-14T02:36:50.162Z,0.00
2023-03-14T02:37:50.168Z,0.00
2023-03-14T02:38:50.153Z,0.00
2023-03-14T02:39:50.198Z,0.00
2023-03-14T02:40:50.169Z,0.00
2023-03-14T02:41:50.193Z,0.00
2023-03-14T02:42:50.174Z,0.00
2023-03-14T02:43:50.187Z,0.00
2023-03-14T02:44:50.202Z,0.00
2023-03-14T02:45:50.266Z,0.00
2023-03-14T02:46:50.212Z,0.00
2023-03-14T02:47:50.197Z,0.00
2023-03-14T02:48:50.201Z,0.00
2023-03-14T02:49:50.249Z,0.00
2023-03-14T02:50:50.220Z,0.00
2023-03-14T02:51:50.217Z,0.00
2023-03-14T02:52:50.219Z,0.00
2023-03-14T02:53:50.252Z,0.00
2023-03-14T02:54:50.229Z,0.00
2023-03-14T02:55:50.245Z,0.00
2023-03-14T02:56:50.258Z,0.00
2023-03-14T02:57:50.260Z,0.00
2023-03-14T02:58:50.272Z,0.00
2023-03-14T02:59:50.273Z,0.00
2023-03-14T03:00:50.261Z,0.00
2023-03-14T03:01:50.289Z,0.00
2023-03-14T03:02:50.290Z,0.00
2023-03-14T03:03:50.275Z,0.00
2023-03-14T03:04:50.298Z,0.00
2023-03-14T03:05:50.304Z,0.00
2023-03-14T03:06:50.309Z,0.00
2023-03-14T03:07:50.316Z,0.00
2023-03-14T03:08:50.298Z,0.00
2023-03-14T03:09:50.305Z,0.00
2023-03-14T03:10:50.328Z,0.00
2023-03-14T03:11:50.337Z,0.00
2023-03-14T03:12:50.337Z,0.00
2023-03-14T03:13:50.363Z,0.00
2023-03-14T03:14:50.370Z,0.00
2023-03-14T03:15:50.353Z,0.00
2023-03-14T03:16:50.419Z,0.00
2023-03-14T03:17:50.363Z,0.00
2023-03-14T03:18:50.353Z,0.00
2023-03-14T03:19:50.355Z,0.00
2023-03-14T03:20:50.388Z,0.00
2023-03-14T03:21:50.480Z,0.00
2023-03-14T03:22:50.370Z,0.00
2023-03-14T03:23:50.398Z,0.00
2023-03-14T03:24:50.400Z,0.00
2023-03-14T03:25:50.405Z,0.00
2023-03-14T03:26:50.410Z,0.00
2023-03-14T03:27:50.398Z,0.00
2023-03-14T03:28:50.401Z,0.00
2023-03-14T03:29:50.410Z,0.00
2023-03-14T03:30:50.520Z,0.00
2023-03-14T03:31:50.436Z,0.00
2023-03-14T03:32:50.519Z,0.00
2023-03-14T03:33:50.454Z,0.00
2023-03-14T03:34:50.454Z,0.00
2023-03-14T03:35:50.515Z,0.00
2023-03-14T03:36:50.468Z,0.00
2023-03-14T03:37:50.468Z,0.00
2023-03-14T03:38:50.476Z,0.00
2023-03-14T03:39:50.459Z,0.00
2023-03-14T03:40:50.484Z,0.00
2023-03-14T03:41:50.476Z,0.00
2023-03-14T03:42:50.494Z,0.00
2023-03-14T03:43:50.478Z,0.00
2023-03-14T03:44:50.506Z,0.00
2023-03-14T03:45:50.541Z,0.00
2023-03-14T03:46:50.531Z,0.00
2023-03-14T03:47:50.502Z,0.00
2023-03-14T03:48:50.507Z,0.00
2023-03-14T03:49:50.514Z,0.00
2023-03-14T03:50:50.513Z,0.00
2023-03-14T03:51:50.542Z,0.00
2023-03-14T03:52:50.522Z,0.00
2023-03-14T03:53:50.551Z,0.00
2023-03-14T03:54:50.552Z,0.00
2023-03-14T03:55:50.558Z,0.00
2023-03-14T03:56:50.545Z,0.00
2023-03-14T03:57:50.569Z,0.00
2023-03-14T03:58:50.551Z,0.00
2023-03-14T03:59:50.578Z,0.00
2023-03-14T04:00:50.560Z,0.00
2023-03-14T04:01:50.568Z,0.00
2023-03-14T04:02:50.656Z,0.00
2023-03-14T04:03:50.633Z,0.00
2023-03-14T04:04:50.581Z,0.00
2023-03-14T04:05:50.610Z,0.00
2023-03-14T04:06:50.614Z,0.00
2023-03-14T04:07:50.613Z,0.00
2023-03-14T04:08:50.626Z,0.00
2023-03-14T04:09:50.643Z,0.00
2023-03-14T04:10:50.610Z,0.00
2023-03-14T04:11:50.616Z,0.00
2023-03-14T04:12:50.674Z,0.00
2023-03-14T04:13:50.625Z,0.00
2023-03-14T04:14:50.627Z,0.00
2023-03-14T04:15:50.664Z,0.00
2023-03-14T04:16:50.658Z,0.00
2023-03-14T04:17:50.644Z,0.00
2023-03-14T04:18:50.649Z,0.00
2023-03-14T04:19:50.679Z,0.00
2023-03-14T04:20:50.658Z,0.00
2023-03-14T04:21:50.685Z,0.00
2023-03-14T04:22:50.669Z,0.00
2023-03-14T04:23:50.693Z,0.00
2023-03-14T04:24:50.771Z,0.00
2023-03-14T04:25:52.534Z,0.00
2023-03-14T04:26:50.712Z,0.00
2023-03-14T04:27:53.259Z,0.00
2023-03-14T04:28:50.716Z,0.00
2023-03-14T04:29:50.729Z,0.00
2023-03-14T04:30:50.729Z,0.00
2023-03-14T04:31:50.710Z,0.00
2023-03-14T04:32:50.771Z,0.00
2023-03-14T04:33:50.737Z,0.00
2023-03-14T04:34:50.750Z,0.00
2023-03-14T04:35:50.772Z,0.00
2023-03-14T04:36:50.753Z,0.00
2023-03-14T04:37:50.758Z,0.00
2023-03-14T04:38:50.762Z,0.00
2023-03-14T04:39:50.768Z,0.00
2023-03-14T04:40:50.756Z,0.00
2023-03-14T04:41:50.799Z,0.00
2023-03-14T04:42:50.796Z,0.00
2023-03-14T04:43:50.766Z,0.00
2023-03-14T04:44:50.783Z,0.00
2023-03-14T04:45:50.797Z,0.00
2023-03-14T04:46:50.826Z,0.00
2023-03-14T04:47:50.806Z,0.00
2023-03-14T04:48:50.812Z,0.00
2023-03-14T04:49:50.820Z,0.00
2023-03-14T04:50:50.804Z,0.00
2023-03-14T04:51:50.805Z,0.00
2023-03-14T04:52:50.831Z,0.00
2023-03-14T04:53:50.815Z,0.00
2023-03-14T04:54:50.841Z,0.00
2023-03-14T04:55:50.831Z,0.00
2023-03-14T04:56:50.830Z,0.00
2023-03-14T04:57:50.855Z,0.00
2023-03-14T04:58:50.862Z,0.00
2023-03-14T04:59:50.868Z,0.00
2023-03-14T05:00:50.873Z,0.00
2023-03-14T05:01:51.091Z,0.00
2023-03-14T05:02:50.987Z,0.00
2023-03-14T05:03:50.890Z,0.00
2023-03-14T05:04:50.867Z,0.00
2023-03-14T05:05:50.872Z,0.00
2023-03-14T05:06:50.876Z,4.00
2023-03-14T05:07:50.910Z,4.00
2023-03-14T05:08:50.904Z,0.00
2023-03-14T05:09:50.913Z,4.00
2023-03-14T05:10:50.894Z,4.00
2023-03-14T05:11:50.922Z,4.00
2023-03-14T05:12:50.922Z,4.00
2023-03-14T05:13:50.959Z,4.00
2023-03-14T05:14:50.932Z,8.00
2023-03-14T05:15:50.934Z,8.00
2023-03-14T05:16:50.924Z,8.00
2023-03-14T05:17:50.946Z,16.00
2023-03-14T05:18:50.952Z,20.00
2023-03-14T05:19:50.965Z,28.00
2023-03-14T05:20:50.942Z,36.00
2023-03-14T05:21:50.946Z,36.00
2023-03-14T05:22:50.957Z,40.00
2023-03-14T05:23:50.979Z,44.00
2023-03-14T05:24:50.981Z,48.00
2023-03-14T05:25:50.984Z,52.00
2023-03-14T05:26:50.976Z,60.00
2023-03-14T05:27:50.997Z,68.00
2023-03-14T05:28:50.981Z,64.00
2023-03-14T05:29:51.018Z,68.00
2023-03-14T05:30:50.997Z,68.00
2023-03-14T05:31:51.103Z,76.00
2023-03-14T05:32:51.035Z,80.00
2023-03-14T05:33:51.007Z,84.00
2023-03-14T05:34:51.027Z,96.00
2023-03-14T05:35:51.106Z,100.00
2023-03-14T05:36:51.018Z,132.00
2023-03-14T05:37:51.044Z,168.00
2023-03-14T05:38:51.030Z,184.00
2023-03-14T05:39:51.057Z,184.00
2023-03-14T05:40:51.088Z,200.00
2023-03-14T05:41:51.071Z,236.00
2023-03-14T05:42:51.072Z,268.00
2023-03-14T05:43:51.079Z,304.00
2023-03-14T05:44:51.065Z,332.00
2023-03-14T05:45:51.329Z,372.00
2023-03-14T05:46:51.095Z,416.00
2023-03-14T05:47:51.079Z,432.00
2023-03-14T05:48:51.116Z,464.00
2023-03-14T05:49:51.105Z,480.00
2023-03-14T05:50:51.094Z,484.00
2023-03-14T05:51:51.117Z,504.00
2023-03-14T05:52:51.102Z,524.00
2023-03-14T05:53:51.124Z,536.00
2023-03-14T05:54:51.132Z,592.00
2023-03-14T05:55:51.134Z,680.00
2023-03-14T05:56:51.140Z,708.00
2023-03-14T05:57:51.123Z,668.00
2023-03-14T05:58:51.151Z,596.00
2023-03-14T05:59:51.134Z,548.00
2023-03-14T06:00:51.140Z,584.00
2023-03-14T06:01:51.229Z,780.00
2023-03-14T06:02:51.220Z,964.00
2023-03-14T06:03:51.162Z,952.00
2023-03-14T06:04:51.177Z,852.00
2023-03-14T06:05:51.188Z,748.00
2023-03-14T06:06:51.167Z,616.00
2023-03-14T06:07:51.174Z,516.00
2023-03-14T06:08:51.193Z,452.00
2023-03-14T06:09:51.180Z,440.00
2023-03-14T06:10:51.187Z,444.00
2023-03-14T06:11:51.217Z,420.00
2023-03-14T06:12:51.194Z,512.00
2023-03-14T06:13:51.224Z,652.00
2023-03-14T06:14:51.230Z,516.00
2023-03-14T06:15:51.380Z,496.00
2023-03-14T06:16:51.285Z,676.00
2023-03-14T06:17:51.247Z,808.00
2023-03-14T06:18:51.248Z,844.00
2023-03-14T06:19:51.229Z,800.00
2023-03-14T06:20:51.252Z,776.00
2023-03-14T06:21:51.240Z,836.00
2023-03-14T06:22:51.263Z,732.00
2023-03-14T06:23:51.257Z,772.00
2023-03-14T06:24:51.257Z,732.00
2023-03-14T06:25:51.280Z,652.00
2023-03-14T06:26:51.263Z,560.00
2023-03-14T06:27:51.294Z,512.00
2023-03-14T06:28:51.296Z,528.00
2023-03-14T06:29:51.292Z,632.00
2023-03-14T06:30:51.385Z,864.00
2023-03-14T06:31:51.290Z,968.00
2023-03-14T06:32:51.477Z,824.00
2023-03-14T06:33:51.388Z,908.00
2023-03-14T06:34:51.310Z,1200.00
2023-03-14T06:35:51.342Z,1668.00
2023-03-14T06:36:51.338Z,1496.00
2023-03-14T06:37:51.324Z,948.00
2023-03-14T06:38:51.336Z,1420.00
2023-03-14T06:39:51.351Z,1448.00
2023-03-14T06:40:51.345Z,1524.00
2023-03-14T06:41:51.363Z,1296.00
2023-03-14T06:42:51.377Z,1436.00
2023-03-14T06:43:51.360Z,1252.00
2023-03-14T06:44:51.357Z,1248.00
2023-03-14T06:45:51.444Z,1344.00
2023-03-14T06:46:51.368Z,1224.00
2023-03-14T06:47:51.456Z,1152.00
2023-03-14T06:48:51.410Z,1064.00
2023-03-14T06:49:51.703Z,852.00
2023-03-14T06:50:51.398Z,784.00
2023-03-14T06:51:51.394Z,756.00
2023-03-14T06:52:51.562Z,736.00
2023-03-14T06:53:51.426Z,712.00
2023-03-14T06:54:51.432Z,576.00
2023-03-14T06:55:51.437Z,468.00
2023-03-14T06:56:51.419Z,680.00
2023-03-14T06:57:51.539Z,808.00
2023-03-14T06:58:51.453Z,980.00
2023-03-14T06:59:51.437Z,1496.00
2023-03-14T07:00:51.462Z,2216.00
2023-03-14T07:01:51.542Z,1800.00
2023-03-14T07:02:51.593Z,1556.00
2023-03-14T07:03:51.480Z,1700.00
2023-03-14T07:04:51.596Z,1716.00
2023-03-14T07:05:51.505Z,1592.00
2023-03-14T07:06:51.473Z,1432.00
2023-03-14T07:07:51.513Z,1140.00
2023-03-14T07:08:51.502Z,1288.00
2023-03-14T07:09:51.700Z,1528.00
2023-03-14T07:10:51.515Z,1624.00
2023-03-14T07:11:51.500Z,2128.00
2023-03-14T07:12:51.538Z,2700.00
2023-03-14T07:13:51.528Z,2924.00
2023-03-14T07:14:51.513Z,3096.00
2023-03-14T07:15:51.576Z,3540.00
2023-03-14T07:16:51.552Z,4800.00
2023-03-14T07:17:51.584Z,6636.00
2023-03-14T07:18:51.534Z,7152.00
2023-03-14T07:19:51.563Z,8000.00
2023-03-14T07:20:51.778Z,7508.00
2023-03-14T07:21:51.579Z,7112.00
2023-03-14T07:22:51.575Z,5944.00
2023-03-14T07:24:51.591Z,5140.00
2023-03-14T07:25:51.588Z,5008.00
2023-03-14T07:26:51.786Z,3888.00
2023-03-14T07:27:51.599Z,4756.00
2023-03-14T07:28:51.606Z,4744.00
2023-03-14T07:29:51.594Z,4736.00
2023-03-14T07:30:51.621Z,4752.00
2023-03-14T07:31:51.625Z,4760.00
2023-03-14T07:32:52.735Z,4784.00
2023-03-14T07:33:51.628Z,4804.00
2023-03-14T07:34:51.640Z,4828.00
2023-03-14T07:35:51.670Z,4860.00
2023-03-14T07:36:51.637Z,4900.00
2023-03-14T07:37:51.736Z,4928.00
2023-03-14T07:38:51.646Z,4964.00
2023-03-14T07:39:51.722Z,4992.00
2023-03-14T07:40:51.674Z,5000.00
2023-03-14T07:41:51.681Z,5028.00
2023-03-14T07:42:51.692Z,5036.00
2023-03-14T07:43:51.704Z,5064.00
2023-03-14T07:44:51.682Z,5088.00
2023-03-14T07:45:59.167Z,5124.00
2023-03-14T07:46:51.828Z,5172.00
2023-03-14T07:47:51.710Z,5212.00
2023-03-14T07:48:51.762Z,5240.00
2023-03-14T07:49:51.710Z,5292.00
2023-03-14T07:50:51.714Z,5364.00
2023-03-14T07:51:51.727Z,5392.00
2023-03-14T07:52:51.744Z,5532.00
2023-03-14T07:53:51.766Z,5652.00
2023-03-14T07:54:51.759Z,5876.00
2023-03-14T07:55:51.746Z,6380.00
2023-03-14T07:56:51.749Z,8480.00
2023-03-14T07:57:51.753Z,13104.00
2023-03-14T07:58:51.761Z,17920.00
2023-03-14T07:59:51.785Z,20000.00
2023-03-14T08:00:51.772Z,21152.00
2023-03-14T08:01:51.802Z,22528.00
2023-03-14T08:02:51.851Z,23008.00
2023-03-14T08:03:51.854Z,18944.00
2023-03-14T08:04:51.825Z,19424.00
2023-03-14T08:05:51.803Z,17664.00
2023-03-14T08:06:51.812Z,23680.00
2023-03-14T08:07:51.821Z,8896.00
2023-03-14T08:08:51.847Z,10172.00
2023-03-14T08:09:51.878Z,8712.00
2023-03-14T08:10:51.862Z,10296.00
2023-03-14T08:11:51.856Z,26112.00
2023-03-14T08:12:51.864Z,11492.00
2023-03-14T08:13:51.885Z,12880.00
2023-03-14T08:14:51.871Z,7160.00
2023-03-14T08:15:51.929Z,7944.00
2023-03-14T08:16:51.886Z,7620.00
2023-03-14T08:17:51.909Z,40320.00
2023-03-14T08:18:51.908Z,37280.00
2023-03-14T08:19:51.929Z,36992.00
2023-03-14T08:20:51.938Z,22144.00
2023-03-14T08:21:51.924Z,11240.00
2023-03-14T08:22:51.960Z,12020.00
2023-03-14T08:23:51.942Z,13264.00
2023-03-14T08:24:51.969Z,13936.00
2023-03-14T08:25:51.994Z,21344.00
2023-03-14T08:26:51.967Z,20160.00
2023-03-14T08:27:51.997Z,17664.00
2023-03-14T08:28:51.984Z,15188.00
2023-03-14T08:29:51.993Z,16192.00
2023-03-14T08:30:52.128Z,16992.00
2023-03-14T08:31:52.121Z,16768.00
2023-03-14T08:32:52.048Z,14212.00
2023-03-14T08:33:52.028Z,13628.00
2023-03-14T08:34:52.038Z,11072.00
2023-03-14T08:35:52.089Z,9888.00
2023-03-14T08:36:52.050Z,9748.00
2023-03-14T08:37:52.084Z,10040.00
2023-03-14T08:38:52.151Z,11788.00
2023-03-14T08:39:52.101Z,10948.00
2023-03-14T08:40:52.105Z,11348.00
2023-03-14T08:41:52.117Z,11064.00
2023-03-14T08:42:52.124Z,11496.00
2023-03-14T08:43:52.113Z,12776.00
2023-03-14T08:44:52.135Z,11832.00
2023-03-14T08:45:52.125Z,10876.00
2023-03-14T08:46:52.220Z,12664.00
2023-03-14T08:47:52.156Z,14540.00
2023-03-14T08:48:52.147Z,14276.00
2023-03-14T08:49:52.232Z,12852.00
2023-03-14T08:50:52.180Z,13204.00
2023-03-14T08:51:52.177Z,13464.00
2023-03-14T08:52:52.277Z,12900.00
2023-03-14T08:53:52.202Z,14004.00
2023-03-14T08:54:52.207Z,14688.00
2023-03-14T08:55:52.201Z,14832.00
2023-03-14T08:56:52.221Z,15468.00
2023-03-14T08:57:52.294Z,15796.00
2023-03-14T08:58:52.219Z,22240.00
2023-03-14T08:59:52.245Z,20096.00
2023-03-14T09:00:52.294Z,48032.00
2023-03-14T09:01:52.261Z,20672.00
2023-03-14T09:02:52.307Z,16512.00
2023-03-14T09:03:52.341Z,12292.00
2023-03-14T09:04:52.263Z,12528.00
2023-03-14T09:05:52.291Z,20160.00
2023-03-14T09:06:52.303Z,17760.00
2023-03-14T09:07:52.319Z,14904.00
2023-03-14T09:08:52.298Z,15836.00
2023-03-14T09:09:52.345Z,15956.00
2023-03-14T09:10:52.316Z,12480.00
2023-03-14T09:11:52.343Z,13012.00
2023-03-14T09:12:52.359Z,15632.00
2023-03-14T09:13:52.364Z,19360.00
2023-03-14T09:14:52.363Z,18368.00
2023-03-14T09:15:52.375Z,18272.00
2023-03-14T09:16:52.461Z,17728.00
2023-03-14T09:17:52.373Z,17824.00
2023-03-14T09:18:52.377Z,18304.00
2023-03-14T09:19:52.391Z,19392.00
2023-03-14T09:20:52.394Z,19136.00
2023-03-14T09:21:52.426Z,18368.00
2023-03-14T09:22:52.433Z,19712.00
2023-03-14T09:23:52.423Z,18368.00
2023-03-14T09:24:52.443Z,24576.00
2023-03-14T09:25:52.455Z,18624.00
2023-03-14T09:26:52.445Z,23328.00
2023-03-14T09:27:52.470Z,19648.00
2023-03-14T09:28:52.496Z,15676.00
2023-03-14T09:29:52.618Z,20032.00
2023-03-14T09:30:52.496Z,31008.00
2023-03-14T09:31:52.576Z,20096.00
2023-03-14T09:32:52.604Z,27040.00
2023-03-14T09:33:52.533Z,20672.00
2023-03-14T09:34:52.526Z,22240.00
2023-03-14T09:35:52.585Z,23904.00
2023-03-14T09:36:52.548Z,17280.00
2023-03-14T09:37:52.550Z,16704.00
2023-03-14T09:38:52.560Z,14668.00
2023-03-14T09:39:52.575Z,12752.00
2023-03-14T09:40:52.580Z,11736.00
2023-03-14T09:41:52.584Z,11736.00
2023-03-14T09:42:52.601Z,10956.00
2023-03-14T09:43:52.600Z,8484.00
2023-03-14T09:44:52.601Z,7660.00
2023-03-14T09:45:52.668Z,7260.00
2023-03-14T09:46:52.622Z,8480.00
2023-03-14T09:47:59.066Z,9052.00
2023-03-14T09:48:52.636Z,8144.00
2023-03-14T09:49:52.637Z,10308.00
2023-03-14T09:50:52.653Z,13256.00
2023-03-14T09:51:52.660Z,10116.00
2023-03-14T09:52:52.650Z,8072.00
2023-03-14T09:53:52.709Z,9520.00
2023-03-14T09:54:52.684Z,10088.00
2023-03-14T09:55:52.698Z,9896.00
2023-03-14T09:56:52.701Z,9912.00
2023-03-14T09:57:52.684Z,10720.00
2023-03-14T09:58:52.733Z,10816.00
2023-03-14T09:59:52.704Z,10716.00
2023-03-14T10:00:52.791Z,11788.00
2023-03-14T10:01:52.860Z,14280.00
2023-03-14T10:02:52.734Z,20704.00
2023-03-14T10:03:52.785Z,19680.00
2023-03-14T10:04:52.741Z,12708.00
2023-03-14T10:05:52.765Z,7484.00
2023-03-14T10:06:52.769Z,5968.00
2023-03-14T10:07:52.780Z,6192.00
2023-03-14T10:08:52.786Z,7296.00
2023-03-14T10:09:52.780Z,10292.00
2023-03-14T10:10:52.800Z,11936.00
2023-03-14T10:11:52.792Z,7244.00
2023-03-14T10:12:54.661Z,6624.00
2023-03-14T10:13:52.820Z,8132.00
2023-03-14T10:14:52.829Z,8620.00
2023-03-14T10:15:52.835Z,8024.00
2023-03-14T10:16:52.944Z,8076.00
2023-03-14T10:17:52.870Z,6008.00
2023-03-14T10:18:52.872Z,4008.00
2023-03-14T10:19:52.850Z,3476.00
2023-03-14T10:20:52.854Z,4228.00
2023-03-14T10:21:52.871Z,5764.00
2023-03-14T10:22:52.890Z,5280.00
2023-03-14T10:23:52.880Z,5752.00
2023-03-14T10:24:52.902Z,7288.00
2023-03-14T10:25:52.928Z,8020.00
2023-03-14T10:26:52.922Z,9924.00
2023-03-14T10:27:52.942Z,20480.00
2023-03-14T10:28:52.959Z,85792.00
2023-03-14T10:29:52.930Z,47520.00
2023-03-14T10:30:53.051Z,16576.00
2023-03-14T10:31:53.049Z,9956.00
2023-03-14T10:32:53.034Z,8580.00
2023-03-14T10:33:52.973Z,8732.00
2023-03-14T10:34:52.979Z,9492.00
2023-03-14T10:35:53.001Z,11064.00
2023-03-14T10:36:52.998Z,15816.00
2023-03-14T10:37:52.992Z,25824.00
2023-03-14T10:38:53.003Z,17152.00
2023-03-14T10:39:53.011Z,13540.00
2023-03-14T10:40:53.011Z,9424.00
2023-03-14T10:41:53.018Z,8560.00
2023-03-14T10:42:53.026Z,9308.00
2023-03-14T10:43:53.044Z,10384.00
2023-03-14T10:44:53.043Z,8792.00
2023-03-14T10:45:53.100Z,8716.00
2023-03-14T10:46:53.076Z,10712.00
2023-03-14T10:47:53.089Z,14696.00
2023-03-14T10:48:53.077Z,14588.00
2023-03-14T10:49:53.124Z,11712.00
2023-03-14T10:50:53.091Z,10524.00
2023-03-14T10:51:53.108Z,12704.00
2023-03-14T10:53:03.556Z,15784.00
2023-03-14T10:53:53.116Z,12284.00
2023-03-14T10:54:53.130Z,8700.00
2023-03-14T10:55:53.132Z,7056.00
2023-03-14T10:56:53.138Z,5968.00
2023-03-14T10:57:53.148Z,5884.00
2023-03-14T10:58:53.159Z,5332.00
2023-03-14T10:59:53.161Z,5432.00
2023-03-14T11:00:53.171Z,6292.00
2023-03-14T11:01:53.235Z,7364.00
2023-03-14T11:02:53.184Z,8872.00
2023-03-14T11:03:53.194Z,9968.00
2023-03-14T11:04:53.216Z,9424.00
2023-03-14T11:05:53.236Z,9496.00
2023-03-14T11:06:53.224Z,9040.00
2023-03-14T11:07:53.231Z,8688.00
2023-03-14T11:08:53.228Z,7776.00
2023-03-14T11:09:53.238Z,8400.00
2023-03-14T11:10:53.248Z,8164.00
2023-03-14T11:11:53.254Z,6668.00
2023-03-14T11:12:53.268Z,6036.00
2023-03-14T11:13:53.270Z,7020.00
2023-03-14T11:14:53.275Z,7092.00
2023-03-14T11:15:53.393Z,6568.00
2023-03-14T11:16:53.294Z,8936.00
2023-03-14T11:17:53.295Z,12568.00
2023-03-14T11:18:53.322Z,18272.00
2023-03-14T11:19:53.348Z,15312.00
2023-03-14T11:20:53.326Z,13940.00
2023-03-14T11:21:53.345Z,14260.00
2023-03-14T11:22:53.340Z,18912.00
2023-03-14T11:23:53.348Z,24224.00
2023-03-14T11:24:53.377Z,52832.00
2023-03-14T11:25:53.364Z,25120.00
2023-03-14T11:26:53.360Z,22624.00
2023-03-14T11:27:53.599Z,16960.00
2023-03-14T11:28:53.377Z,15072.00
2023-03-14T11:29:53.403Z,16352.00
2023-03-14T11:30:53.453Z,16608.00
2023-03-14T11:31:53.406Z,14468.00
2023-03-14T11:32:53.468Z,17376.00
2023-03-14T11:33:53.417Z,12856.00
2023-03-14T11:34:53.424Z,11208.00
2023-03-14T11:35:53.509Z,14156.00
2023-03-14T11:36:53.450Z,14036.00
2023-03-14T11:37:54.014Z,10544.00
2023-03-14T11:38:53.859Z,9460.00
2023-03-14T11:39:53.462Z,8076.00
2023-03-14T11:40:53.724Z,7180.00
2023-03-14T11:41:53.883Z,7188.00
2023-03-14T11:42:53.499Z,9344.00
2023-03-14T11:43:53.511Z,13148.00
2023-03-14T11:44:53.513Z,12912.00
2023-03-14T11:45:53.518Z,10972.00
2023-03-14T11:46:53.580Z,13800.00
2023-03-14T11:47:53.527Z,32160.00
2023-03-14T11:48:53.550Z,54816.00
2023-03-14T11:49:53.553Z,22624.00
2023-03-14T11:50:53.553Z,17568.00
2023-03-14T11:51:53.560Z,15796.00
2023-03-14T11:52:53.566Z,17504.00
2023-03-14T11:53:53.628Z,17824.00
2023-03-14T11:54:53.589Z,22400.00
2023-03-14T11:55:53.601Z,22560.00
2023-03-14T11:56:53.621Z,24192.00
2023-03-14T11:57:53.617Z,28608.00
2023-03-14T11:58:53.615Z,29344.00
2023-03-14T11:59:53.623Z,41824.00
2023-03-14T12:00:53.637Z,42752.00
2023-03-14T12:01:53.672Z,34976.00
2023-03-14T12:02:53.648Z,30240.00
2023-03-14T12:04:36.208Z,18944.00
2023-03-14T12:05:36.215Z,15720.00
2023-03-14T12:06:36.242Z,16512.00
2023-03-14T12:07:36.235Z,57408.00
2023-03-14T12:08:36.237Z,62848.00
2023-03-14T12:09:36.285Z,48256.00
2023-03-14T12:10:36.258Z,25568.00
2023-03-14T12:11:36.289Z,61024.00
2023-03-14T12:12:36.303Z,36512.00
2023-03-14T12:13:36.292Z,24000.00
2023-03-14T12:14:36.313Z,22400.00
2023-03-14T12:15:36.303Z,19232.00
2023-03-14T12:16:38.460Z,14896.00
2023-03-14T12:17:36.323Z,13656.00
2023-03-14T12:18:36.340Z,13124.00
2023-03-14T12:19:36.345Z,12440.00
2023-03-14T12:20:36.359Z,11988.00
2023-03-14T12:21:36.372Z,12108.00
2023-03-14T12:22:36.373Z,12996.00
2023-03-14T12:23:36.389Z,15668.00
2023-03-14T12:24:36.404Z,21696.00
2023-03-14T12:25:36.425Z,20608.00
2023-03-14T12:26:36.419Z,28576.00
2023-03-14T12:27:36.419Z,78080.00
2023-03-14T12:28:36.439Z,34112.00
2023-03-14T12:29:36.440Z,29536.00
2023-03-14T12:30:36.469Z,16008.00
2023-03-14T12:31:36.474Z,20640.00
2023-03-14T12:32:36.521Z,20896.00
2023-03-14T12:33:36.483Z,36192.00